Time;durP1;ratioP1;P1;durP2;ratioP2;P2;SDS_P1;SDS_P2;PMS_P1;PMS_P2;Temp;Humidity;BMP_temperature;BMP_pressure;BME280_temperature;BME280_humidity;BME280_pressure;Samples;Min_cycle;Max_cycle;Signal;HPM_P1;HPM_P2
2022/04/22 00:02:13;;;;;;;5.95;4.13;;;13.20;56.30;;;;;;5101458;28;20261;-87
2022/04/22 00:04:39;;;;;;;7.73;5.67;;;13.10;56.60;;;;;;5101881;28;20175;-87
2022/04/22 00:07:06;;;;;;;8.20;4.50;;;13.10;56.60;;;;;;5101542;28;20959;-87
2022/04/22 00:09:31;;;;;;;8.57;4.95;;;13.10;56.60;;;;;;5085805;28;20175;-87
2022/04/22 00:11:57;;;;;;;6.13;4.90;;;13.00;56.70;;;;;;5102156;28;20260;-87
2022/04/22 00:14:23;;;;;;;7.93;6.17;;;13.00;57.70;;;;;;5104752;28;20263;-87
2022/04/22 00:16:48;;;;;;;7.33;5.67;;;13.00;57.00;;;;;;5103803;28;20191;-87
2022/04/22 00:19:14;;;;;;;6.70;5.43;;;13.00;57.30;;;;;;5102572;28;20744;-87
2022/04/22 00:21:43;;;;;;;8.90;4.97;;;12.80;57.60;;;;;;5101729;28;20176;-88
2022/04/22 00:24:09;;;;;;;6.70;5.00;;;12.70;58.00;;;;;;5100790;28;20202;-87
2022/04/22 00:26:34;;;;;;;7.40;5.93;;;12.70;58.30;;;;;;5100941;28;20325;-87
2022/04/22 00:29:01;;;;;;;7.70;6.33;;;12.70;58.40;;;;;;5120084;28;20175;-87
2022/04/22 00:31:26;;;;;;;6.97;4.78;;;12.80;58.40;;;;;;5119262;28;20642;-87
2022/04/22 00:33:52;;;;;;;9.77;5.80;;;12.70;58.70;;;;;;5118932;28;20266;-87
2022/04/22 00:36:18;;;;;;;6.33;5.00;;;12.50;59.10;;;;;;5101704;28;20219;-88
2022/04/22 00:38:44;;;;;;;7.07;5.00;;;12.60;59.20;;;;;;5105923;28;20470;-87
2022/04/22 00:41:10;;;;;;;9.07;5.70;;;12.60;59.20;;;;;;5101763;28;20865;-88
2022/04/22 00:43:44;;;;;;;9.13;5.90;;;12.50;59.50;;;;;;5101642;28;20492;-88
2022/04/22 00:46:11;;;;;;;12.65;5.20;;;12.40;59.90;;;;;;5101848;28;20413;-87
2022/04/22 00:48:37;;;;;;;7.28;5.32;;;12.50;60.10;;;;;;5102555;28;20336;-88
2022/04/22 00:51:08;;;;;;;6.30;5.45;;;12.40;60.00;;;;;;5103437;28;20646;-89
2022/04/22 00:53:35;;;;;;;10.20;5.85;;;12.40;60.30;;;;;;5126966;28;20248;-88
2022/04/22 00:56:03;;;;;;;13.10;6.50;;;12.30;60.50;;;;;;5089550;28;20634;-86
2022/04/22 00:58:28;;;;;;;9.07;6.72;;;12.20;60.90;;;;;;5105860;28;20199;-87
2022/04/22 01:00:54;;;;;;;7.97;5.47;;;12.10;61.30;;;;;;5105561;28;20274;-87
2022/04/22 01:03:20;;;;;;;9.20;6.13;;;12.20;61.50;;;;;;5106240;28;20658;-87
2022/04/22 01:11:18;;;;;;;8.30;6.30;;;12.10;62.80;;;;;;5123844;28;20170;-87
2022/04/22 01:13:45;;;;;;;9.15;6.90;;;12.20;62.00;;;;;;5105474;28;20190;-88
2022/04/22 01:16:12;;;;;;;8.38;6.50;;;12.20;62.00;;;;;;5105505;28;20171;-87
2022/04/22 01:18:38;;;;;;;9.82;6.60;;;12.10;62.30;;;;;;5106687;28;20278;-88
2022/04/22 01:21:04;;;;;;;7.37;6.53;;;12.10;62.50;;;;;;5108566;28;20210;-87
2022/04/22 01:23:31;;;;;;;10.57;7.93;;;12.10;62.50;;;;;;5108376;28;20199;-87
2022/04/22 01:25:57;;;;;;;11.82;7.63;;;12.00;63.00;;;;;;5127523;28;20167;-88
2022/04/22 01:28:23;;;;;;;8.35;7.43;;;12.00;63.10;;;;;;5118266;28;20171;-88
2022/04/22 01:30:55;;;;;;;11.25;7.47;;;12.00;63.20;;;;;;5128951;28;20183;-86
2022/04/22 01:33:20;;;;;;;8.85;7.57;;;12.00;63.30;;;;;;5107809;28;20239;-88
2022/04/22 01:35:46;;;;;;;9.37;7.53;;;11.90;63.60;;;;;;5110822;28;20175;-88
2022/04/22 01:38:12;;;;;;;11.60;7.80;;;11.80;63.90;;;;;;5111352;28;20226;-86
2022/04/22 01:40:39;;;;;;;9.23;7.90;;;11.70;64.40;;;;;;5114109;28;20206;-86
2022/04/22 01:43:05;;;;;;;9.57;6.70;;;11.80;64.20;;;;;;5135312;28;20209;-87
2022/04/22 01:45:31;;;;;;;11.85;8.25;;;11.70;64.50;;;;;;5116313;28;20194;-87
2022/04/22 01:47:57;;;;;;;11.70;7.55;;;11.70;64.60;;;;;;5115415;28;20192;-88
2022/04/22 01:50:23;;;;;;;11.52;7.18;;;11.70;64.60;;;;;;5128659;28;20171;-87
2022/04/22 01:52:49;;;;;;;11.65;8.85;;;11.70;65.00;;;;;;5123664;28;20179;-88
2022/04/22 01:55:15;;;;;;;12.23;8.57;;;11.60;65.00;;;;;;5106965;28;20206;-86
2022/04/22 01:57:41;;;;;;;10.63;7.38;;;11.70;65.20;;;;;;5105161;28;20253;-86
2022/04/22 02:00:08;;;;;;;15.30;9.27;;;11.50;65.40;;;;;;5104990;28;20186;-88
2022/04/22 02:02:34;;;;;;;12.90;8.40;;;11.40;65.80;;;;;;5104734;28;20964;-88
2022/04/22 02:05:00;;;;;;;13.77;8.10;;;11.40;66.20;;;;;;5103343;28;20638;-87
2022/04/22 02:07:26;;;;;;;11.25;8.50;;;11.50;66.20;;;;;;5095365;22;21024;-86
2022/04/22 02:09:52;;;;;;;10.90;7.70;;;11.40;66.40;;;;;;5112572;28;20232;-86
2022/04/22 02:12:18;;;;;;;14.10;9.17;;;11.40;66.50;;;;;;5102196;28;20439;-86
2022/04/22 02:14:44;;;;;;;14.13;8.65;;;11.40;66.60;;;;;;5101729;28;20181;-87
2022/04/22 02:17:09;;;;;;;10.73;8.80;;;11.50;66.50;;;;;;5088330;27;20266;-86
2022/04/22 02:19:35;;;;;;;11.77;9.17;;;11.40;66.60;;;;;;5127048;27;20641;-86
2022/04/22 02:22:01;;;;;;;14.63;9.50;;;11.40;66.90;;;;;;5128501;27;20182;-86
2022/04/22 02:24:27;;;;;;;17.03;9.70;;;11.30;67.10;;;;;;5134705;27;20187;-87
2022/04/22 02:29:37;;;;;;;13.25;9.05;;;11.40;67.10;;;;;;5144316;27;20182;-84
2022/04/22 02:32:04;;;;;;;15.40;10.20;;;11.30;67.40;;;;;;5140117;27;20801;-87
2022/04/22 02:34:31;;;;;;;13.32;9.77;;;11.30;67.40;;;;;;5122549;27;20220;-84
2022/04/22 02:36:56;;;;;;;14.38;10.23;;;11.30;67.70;;;;;;5123262;27;20174;-84
2022/04/22 02:39:22;;;;;;;13.60;9.53;;;11.20;67.90;;;;;;5139364;27;20193;-85
2022/04/22 02:47:16;;;;;;;12.18;9.20;;;11.10;69.00;;;;;;5119346;28;20166;-84
2022/04/22 02:49:44;;;;;;;13.80;10.50;;;11.10;69.10;;;;;;5100052;28;20178;-85
2022/04/22 02:52:14;;;;;;;14.45;9.77;;;11.00;69.10;;;;;;5100814;28;20212;-85
2022/04/22 02:54:40;;;;;;;16.20;10.98;;;11.00;69.40;;;;;;5104051;28;20646;-84
2022/04/22 02:57:06;;;;;;;13.93;10.67;;;11.00;69.60;;;;;;5103073;28;20224;-85
2022/04/22 02:59:32;;;;;;;12.40;9.70;;;10.90;70.00;;;;;;5102464;28;20412;-85
2022/04/22 03:01:59;;;;;;;19.70;11.40;;;10.90;70.10;;;;;;5099261;28;20658;-86
2022/04/22 03:04:28;;;;;;;16.55;12.05;;;10.90;70.00;;;;;;5103167;28;20178;-86
2022/04/22 03:06:56;;;;;;;18.92;12.57;;;10.80;70.20;;;;;;5120770;28;20179;-85
2022/04/22 03:09:23;;;;;;;14.70;11.10;;;10.80;70.50;;;;;;5101458;28;20339;-85
2022/04/22 03:11:50;;;;;;;12.02;10.73;;;10.70;70.80;;;;;;5103915;28;20662;-85
2022/04/22 03:14:17;;;;;;;16.27;11.82;;;10.90;70.80;;;;;;5103978;28;20167;-86
2022/04/22 03:16:44;;;;;;;13.40;12.00;;;10.90;70.70;;;;;;5106161;28;20258;-85
2022/04/22 03:19:10;;;;;;;17.80;12.48;;;10.90;70.80;;;;;;5106194;28;20239;-84
2022/04/22 03:21:36;;;;;;;17.60;12.63;;;10.80;70.90;;;;;;5105654;28;20224;-85
2022/04/22 03:24:02;;;;;;;16.48;11.73;;;10.70;71.50;;;;;;5104402;28;20455;-84
2022/04/22 03:26:27;;;;;;;18.67;12.80;;;10.70;71.40;;;;;;5105259;28;20186;-84
2022/04/22 03:28:53;;;;;;;13.90;12.00;;;10.70;71.50;;;;;;5103320;28;20252;-84
2022/04/22 03:31:19;;;;;;;16.00;11.23;;;10.60;71.70;;;;;;5103941;28;20179;-85
2022/04/22 03:33:45;;;;;;;18.88;12.77;;;10.70;71.80;;;;;;5103631;27;20261;-85
2022/04/22 03:36:14;;;;;;;18.50;13.18;;;10.60;71.90;;;;;;5104299;28;20175;-85
2022/04/22 03:38:40;;;;;;;15.25;12.13;;;10.60;71.90;;;;;;5101859;28;20205;-85
2022/04/22 03:41:06;;;;;;;14.20;12.02;;;10.60;72.10;;;;;;5121670;28;20182;-84
2022/04/22 03:43:43;;;;;;;14.30;11.20;;;10.60;72.10;;;;;;5104469;28;20203;-84
2022/04/22 03:46:09;;;;;;;16.83;11.85;;;10.60;72.40;;;;;;5108174;28;20500;-87
2022/04/22 03:48:34;;;;;;;18.00;13.10;;;10.40;72.90;;;;;;5103512;28;20206;-84
2022/04/22 03:51:00;;;;;;;16.80;12.33;;;10.50;73.10;;;;;;5102710;28;20307;-84
2022/04/22 03:53:26;;;;;;;15.80;11.83;;;10.50;72.80;;;;;;5102331;28;20183;-85
2022/04/22 03:55:52;;;;;;;22.17;14.07;;;10.40;73.10;;;;;;5104360;28;20179;-84
2022/04/22 03:58:18;;;;;;;22.80;13.83;;;10.30;73.70;;;;;;5121902;28;20428;-85
2022/04/22 04:00:48;;;;;;;16.00;12.80;;;10.30;73.80;;;;;;5104352;28;20257;-85
2022/04/22 04:03:17;;;;;;;17.02;13.05;;;10.30;73.90;;;;;;5102885;28;20516;-84
2022/04/22 04:05:47;;;;;;;15.55;12.38;;;10.30;74.00;;;;;;5103655;28;20176;-84
2022/04/22 04:08:13;;;;;;;22.98;12.85;;;10.40;73.80;;;;;;5102055;28;20219;-86
2022/04/22 04:16:08;;;;;;;14.32;11.98;;;10.40;74.20;;;;;;5083130;28;20183;-85
2022/04/22 04:18:35;;;;;;;19.83;13.93;;;10.30;74.30;;;;;;5080078;28;20200;-85
2022/04/22 04:23:59;;;;;;;17.80;13.25;;;10.50;74.20;;;;;;5098792;28;20265;-85
2022/04/22 04:26:26;;;;;;;16.05;12.82;;;10.50;74.90;;;;;;5080446;28;20646;-85
2022/04/22 04:28:53;;;;;;;24.67;14.65;;;10.40;74.20;;;;;;5081985;28;20226;-84
2022/04/22 04:31:20;;;;;;;16.25;12.88;;;10.30;74.70;;;;;;5100962;28;20176;-84
2022/04/22 04:33:46;;;;;;;20.13;14.25;;;10.30;75.00;;;;;;5082391;28;20526;-84
2022/04/22 04:36:12;;;;;;;16.60;12.65;;;10.30;74.90;;;;;;5115132;27;20186;-84
2022/04/22 04:38:42;;;;;;;19.55;14.10;;;10.30;75.00;;;;;;5145922;27;20213;-84
2022/04/22 04:41:09;;;;;;;18.23;14.10;;;10.40;74.90;;;;;;5129920;27;20226;-84
2022/04/22 04:43:36;;;;;;;22.02;14.10;;;10.30;75.00;;;;;;5147638;27;20238;-85
2022/04/22 04:46:03;;;;;;;18.10;12.90;;;10.40;74.90;;;;;;5117420;28;20224;-84
2022/04/22 04:48:28;;;;;;;19.00;13.73;;;10.40;74.90;;;;;;5112399;27;20206;-86
2022/04/22 04:50:55;;;;;;;19.93;15.00;;;10.40;74.90;;;;;;5119930;28;20203;-84
2022/04/22 04:53:23;;;;;;;17.80;13.38;;;10.30;75.10;;;;;;5116115;28;20178;-85
2022/04/22 04:55:53;;;;;;;16.48;12.65;;;10.30;75.30;;;;;;5117344;28;20163;-86
2022/04/22 04:58:21;;;;;;;21.48;14.20;;;10.40;75.20;;;;;;5136428;28;20199;-85
2022/04/22 05:00:48;;;;;;;17.80;13.82;;;10.40;75.10;;;;;;5107477;28;20191;-84
2022/04/22 05:03:14;;;;;;;18.55;13.75;;;10.50;74.90;;;;;;5110102;28;20219;-85
2022/04/22 05:05:40;;;;;;;15.80;13.20;;;10.40;75.80;;;;;;5120678;27;20171;-83
2022/04/22 05:08:07;;;;;;;19.48;13.50;;;10.30;75.40;;;;;;5103272;28;20445;-83
2022/04/22 05:10:35;;;;;;;21.35;13.77;;;10.50;75.10;;;;;;5103865;28;20171;-84
2022/04/22 05:13:03;;;;;;;19.25;14.15;;;10.40;75.10;;;;;;5104526;28;20188;-84
2022/04/22 05:15:30;;;;;;;17.52;14.00;;;10.30;75.50;;;;;;5103968;28;20210;-83
2022/04/22 05:17:58;;;;;;;20.50;15.48;;;10.40;75.40;;;;;;5105528;28;20203;-83
2022/04/22 05:20:27;;;;;;;18.25;14.52;;;10.50;75.20;;;;;;5105497;28;20183;-82
2022/04/22 05:22:54;;;;;;;23.83;14.43;;;10.50;75.30;;;;;;5124322;28;20576;-83
2022/04/22 05:25:21;;;;;;;15.88;12.38;;;10.80;74.80;;;;;;5124899;28;20176;-85
2022/04/22 05:27:47;;;;;;;19.70;13.48;;;11.10;74.00;;;;;;5106276;28;20209;-86
2022/04/22 05:33:03;;;;;;;18.05;13.32;;;11.80;71.00;;;;;;5121133;27;20182;-86
2022/04/22 05:35:29;;;;;;;22.00;13.68;;;12.10;69.60;;;;;;5103483;28;20820;-85
2022/04/22 05:38:05;;;;;;;21.85;13.38;;;12.40;68.50;;;;;;5103151;28;20195;-85
2022/04/22 05:40:38;;;;;;;16.98;11.70;;;12.80;66.90;;;;;;5122897;28;20183;-85
2022/04/22 05:43:10;;;;;;;18.05;12.38;;;12.90;66.30;;;;;;5104018;28;20199;-85
2022/04/22 05:45:39;;;;;;;14.73;12.55;;;13.30;64.80;;;;;;5108313;27;20179;-85
2022/04/22 05:48:05;;;;;;;17.42;12.98;;;13.50;64.30;;;;;;5113418;28;20191;-84
2022/04/22 05:50:31;;;;;;;16.00;12.90;;;13.60;63.60;;;;;;5113210;28;20171;-85
2022/04/22 05:52:58;;;;;;;15.10;12.43;;;13.70;63.10;;;;;;5115896;28;20194;-84
2022/04/22 05:55:26;;;;;;;16.33;13.05;;;14.00;62.40;;;;;;5116844;28;20432;-86
2022/04/22 05:57:53;;;;;;;20.13;12.32;;;13.90;62.10;;;;;;5114639;28;20264;-84
2022/04/22 06:00:20;;;;;;;18.00;12.43;;;14.50;60.80;;;;;;5114643;28;20180;-84
2022/04/22 06:02:46;;;;;;;16.10;12.52;;;14.60;59.90;;;;;;5112577;27;20207;-85
2022/04/22 06:05:15;;;;;;;20.30;13.23;;;15.00;59.30;;;;;;5144578;27;20177;-84
2022/04/22 06:07:42;;;;;;;17.55;12.93;;;15.40;58.00;;;;;;5120481;27;20231;-84
2022/04/22 06:12:54;;;;;;;14.52;12.85;;;15.60;56.00;;;;;;5138540;27;20185;-84
2022/04/22 06:15:33;;;;;;;13.63;12.07;;;15.90;56.10;;;;;;5101976;28;20176;-84
2022/04/22 06:17:59;;;;;;;20.90;12.65;;;15.90;55.80;;;;;;5123325;28;20207;-84
2022/04/22 06:20:26;;;;;;;20.00;13.85;;;15.90;55.10;;;;;;5102182;28;20175;-84
2022/04/22 06:22:51;;;;;;;16.10;12.95;;;16.20;54.60;;;;;;5121246;28;20214;-85
2022/04/22 06:25:18;;;;;;;14.20;12.57;;;16.40;54.30;;;;;;5102907;27;20548;-85
2022/04/22 06:27:45;;;;;;;17.55;13.80;;;16.80;53.00;;;;;;5125560;27;20420;-84
2022/04/22 06:30:16;;;;;;;17.45;13.68;;;16.20;53.30;;;;;;5123295;27;20185;-85
2022/04/22 06:32:44;;;;;;;19.40;13.40;;;16.30;53.80;;;;;;5121670;27;20177;-85
2022/04/22 06:35:11;;;;;;;26.88;14.35;;;16.10;54.60;;;;;;5140731;27;20171;-84
2022/04/22 06:37:38;;;;;;;22.35;15.35;;;16.10;54.20;;;;;;5123897;27;20218;-85
2022/04/22 06:45:48;;;;;;;18.92;14.93;;;14.60;57.70;;;;;;5113582;28;20243;-84
2022/04/22 06:48:26;;;;;;;16.77;14.98;;;13.80;61.00;;;;;;5101928;28;20211;-86
2022/04/22 06:50:52;;;;;;;19.88;14.63;;;13.60;62.30;;;;;;5102051;28;20266;-85
2022/04/22 06:53:20;;;;;;;20.83;15.52;;;13.80;62.50;;;;;;5100855;28;20187;-84
2022/04/22 06:55:47;;;;;;;23.05;16.05;;;13.80;62.20;;;;;;5101093;28;20186;-84
2022/04/22 06:58:15;;;;;;;18.13;14.80;;;13.40;63.70;;;;;;5099640;28;20686;-85
2022/04/22 07:00:42;;;;;;;18.55;15.40;;;13.70;63.40;;;;;;5119752;28;20205;-86
2022/04/22 07:03:09;;;;;;;19.20;14.50;;;13.80;63.00;;;;;;5101818;28;20203;-84
2022/04/22 07:05:37;;;;;;;21.83;17.25;;;13.90;62.50;;;;;;5104068;28;20179;-85
2022/04/22 07:08:06;;;;;;;22.35;15.73;;;14.00;62.10;;;;;;5122815;28;20259;-85
2022/04/22 07:10:33;;;;;;;25.05;15.95;;;14.00;62.00;;;;;;5122438;28;20175;-85
2022/04/22 07:12:59;;;;;;;20.65;15.85;;;13.60;62.70;;;;;;5104184;28;20186;-84
2022/04/22 07:15:26;;;;;;;23.15;16.17;;;13.70;63.10;;;;;;5105698;28;20190;-85
2022/04/22 07:17:53;;;;;;;21.65;14.40;;;13.60;63.40;;;;;;5105098;28;20198;-85
2022/04/22 07:20:21;;;;;;;18.48;14.95;;;13.60;63.80;;;;;;5106473;28;20191;-84
2022/04/22 07:22:47;;;;;;;27.10;17.70;;;13.40;64.00;;;;;;5106425;28;20199;-85
2022/04/22 07:25:14;;;;;;;20.35;15.20;;;13.50;64.10;;;;;;5128316;28;20650;-85
2022/04/22 07:27:42;;;;;;;20.42;14.45;;;13.60;63.70;;;;;;5110854;28;20218;-85
2022/04/22 07:30:12;;;;;;;19.27;15.43;;;13.80;63.30;;;;;;5131861;28;20179;-85
2022/04/22 07:32:38;;;;;;;22.83;16.05;;;14.10;62.70;;;;;;5131813;28;20240;-86
2022/04/22 07:35:05;;;;;;;20.70;16.50;;;14.10;62.10;;;;;;5107390;28;20190;-85
2022/04/22 07:37:48;;;;;;;18.63;15.32;;;14.20;61.70;;;;;;5107579;28;20266;-86
2022/04/22 07:40:15;;;;;;;24.40;17.00;;;13.80;62.40;;;;;;5114991;28;20175;-85
2022/04/22 07:46:46;;;;;;;19.92;15.50;;;13.80;63.00;;;;;;5123993;28;20233;-85
2022/04/22 07:48:17;;;;;;;22.52;16.98;;;14.00;62.50;;;;;;5114457;28;20217;-85
2022/04/22 07:50:45;;;;;;;21.42;16.80;;;14.00;62.10;;;;;;5107842;28;20180;-85
2022/04/22 07:53:11;;;;;;;20.25;15.02;;;13.90;62.20;;;;;;5102490;28;20175;-85
2022/04/22 07:55:37;;;;;;;19.20;15.10;;;14.00;62.30;;;;;;5121202;28;20715;-86
2022/04/22 07:58:02;;;;;;;21.67;16.30;;;14.10;62.20;;;;;;5102128;28;20634;-86
2022/04/22 08:00:28;;;;;;;22.07;16.93;;;14.20;61.50;;;;;;5104544;28;20183;-85
2022/04/22 08:02:54;;;;;;;27.97;18.53;;;14.20;61.10;;;;;;5122240;28;20198;-86
2022/04/22 08:05:20;;;;;;;24.17;17.67;;;13.80;61.60;;;;;;5087314;28;20489;-84
2022/04/22 08:07:45;;;;;;;24.70;19.10;;;13.80;62.10;;;;;;5104940;28;20259;-85
2022/04/22 08:10:18;;;;;;;22.27;16.67;;;14.00;62.20;;;;;;5126744;28;20179;-85
2022/04/22 08:12:44;;;;;;;23.60;17.58;;;14.40;61.30;;;;;;5106395;28;20547;-85
2022/04/22 08:15:11;;;;;;;23.92;18.15;;;14.30;60.70;;;;;;5123394;28;20189;-84
2022/04/22 08:17:37;;;;;;;28.98;17.77;;;14.00;61.00;;;;;;5105298;28;20278;-85
2022/04/22 08:20:07;;;;;;;25.23;18.50;;;14.30;61.10;;;;;;5105294;28;20183;-85
2022/04/22 08:22:33;;;;;;;25.23;18.05;;;14.20;60.70;;;;;;5104593;28;20210;-85
2022/04/22 08:25:00;;;;;;;23.80;17.83;;;14.30;60.20;;;;;;5128969;28;20259;-85
2022/04/22 08:27:26;;;;;;;22.35;17.25;;;14.50;59.80;;;;;;5104561;28;20191;-86
2022/04/22 08:29:53;;;;;;;21.95;17.70;;;14.50;59.50;;;;;;5104425;28;20178;-85
2022/04/22 08:32:19;;;;;;;23.23;17.55;;;14.70;59.40;;;;;;5104755;28;20182;-84
2022/04/22 08:34:46;;;;;;;20.25;16.95;;;14.80;59.10;;;;;;5120660;22;20294;-86
2022/04/22 08:37:12;;;;;;;23.30;19.38;;;15.00;58.10;;;;;;5123135;28;20603;-85
2022/04/22 08:39:38;;;;;;;22.02;17.10;;;15.00;57.70;;;;;;5104680;28;20171;-86
2022/04/22 08:42:05;;;;;;;19.00;15.43;;;14.90;57.90;;;;;;5123109;28;20657;-85
2022/04/22 08:44:36;;;;;;;20.23;16.80;;;15.00;57.90;;;;;;5098313;28;20465;-85
2022/04/22 08:49:59;;;;;;;23.90;17.27;;;15.40;56.30;;;;;;5086405;28;20175;-86
2022/04/22 08:52:26;;;;;;;20.73;15.85;;;15.40;55.80;;;;;;5080221;28;20175;-85
2022/04/22 08:54:54;;;;;;;21.48;15.75;;;15.20;55.60;;;;;;5102819;28;20188;-86
2022/04/22 08:57:21;;;;;;;17.45;14.90;;;15.10;56.00;;;;;;5088478;28;20180;-86
2022/04/22 08:59:47;;;;;;;23.73;15.65;;;15.10;57.00;;;;;;5066332;28;20703;-86
2022/04/22 09:02:17;;;;;;;17.98;13.93;;;15.30;55.80;;;;;;5084342;28;20185;-87
2022/04/22 09:04:44;;;;;;;21.65;15.40;;;15.40;55.60;;;;;;5067262;28;20622;-86
2022/04/22 09:07:12;;;;;;;20.08;14.02;;;15.50;55.20;;;;;;5067609;28;20216;-86
2022/04/22 09:09:39;;;;;;;18.17;13.38;;;15.30;54.70;;;;;;5079407;28;20202;-86
2022/04/22 09:12:11;;;;;;;23.45;13.63;;;15.30;54.50;;;;;;5087891;28;20255;-86
2022/04/22 09:14:46;;;;;;;18.58;12.70;;;15.20;53.30;;;;;;5088339;28;20195;-86
2022/04/22 09:17:15;;;;;;;17.23;12.80;;;15.00;53.60;;;;;;5091598;28;20181;-86
2022/04/22 09:19:44;;;;;;;17.15;12.77;;;15.00;53.90;;;;;;5099768;28;20203;-86
2022/04/22 09:22:10;;;;;;;17.10;11.95;;;15.30;53.80;;;;;;5093097;28;20194;-87
2022/04/22 09:24:47;;;;;;;19.17;12.65;;;15.50;52.70;;;;;;5088600;28;20214;-86
2022/04/22 09:27:13;;;;;;;16.88;12.13;;;15.70;52.50;;;;;;5109681;28;20176;-87
2022/04/22 09:29:54;;;;;;;15.52;12.85;;;16.00;51.60;;;;;;5095682;28;20195;-86
2022/04/22 09:32:28;;;;;;;19.70;13.48;;;16.20;50.80;;;;;;5112765;28;20155;-86
2022/04/22 09:35:08;;;;;;;17.98;13.80;;;16.20;50.60;;;;;;5106461;28;20313;-86
2022/04/22 09:43:33;;;;;;;22.23;16.02;;;16.00;51.70;;;;;;5117908;28;20220;-86
2022/04/22 09:45:59;;;;;;;18.73;15.00;;;15.70;52.20;;;;;;5089639;28;20199;-85
2022/04/22 09:48:25;;;;;;;16.67;14.90;;;15.70;52.80;;;;;;5079276;28;20234;-86
2022/04/22 09:50:55;;;;;;;19.67;14.88;;;15.50;52.70;;;;;;5073188;28;20486;-85
2022/04/22 09:53:35;;;;;;;22.23;15.82;;;15.30;54.40;;;;;;5095515;28;20184;-87
2022/04/22 09:56:09;;;;;;;20.27;16.00;;;15.40;54.10;;;;;;5104265;28;20235;-86
2022/04/22 09:58:35;;;;;;;18.98;14.68;;;15.40;54.70;;;;;;5107851;28;20203;-85
2022/04/22 10:01:05;;;;;;;17.50;13.20;;;15.60;54.20;;;;;;5109228;28;20164;-87
2022/04/22 10:03:36;;;;;;;20.17;15.60;;;15.80;53.90;;;;;;5091331;28;20271;-86
2022/04/22 10:06:02;;;;;;;16.10;14.00;;;16.00;52.80;;;;;;5087271;28;20171;-85
2022/04/22 10:08:36;;;;;;;18.05;13.77;;;16.10;52.70;;;;;;5087245;28;20194;-87
2022/04/22 10:11:06;;;;;;;19.15;14.13;;;16.10;51.60;;;;;;5085417;28;20186;-87
2022/04/22 10:13:40;;;;;;;16.58;14.07;;;16.00;50.80;;;;;;5085784;28;20228;-86
2022/04/22 10:16:09;;;;;;;16.33;14.63;;;15.90;51.30;;;;;;5086476;28;20176;-86
2022/04/22 10:18:35;;;;;;;16.75;15.02;;;15.90;51.60;;;;;;5086140;28;20180;-87
2022/04/22 10:21:02;;;;;;;18.60;16.10;;;16.00;51.90;;;;;;5086120;28;20781;-87
2022/04/22 10:23:30;;;;;;;18.13;16.20;;;15.90;52.10;;;;;;5105245;28;20196;-86
2022/04/22 10:25:57;;;;;;;19.60;16.40;;;16.00;52.10;;;;;;5089066;28;20199;-87
2022/04/22 10:28:25;;;;;;;19.48;17.15;;;16.10;52.20;;;;;;5095402;28;20233;-86
2022/04/22 10:30:54;;;;;;;18.02;16.20;;;16.10;52.30;;;;;;5093820;28;20187;-86
2022/04/22 10:33:25;;;;;;;17.80;13.73;;;16.10;53.20;;;;;;5112799;28;20190;-87
2022/04/22 10:35:58;;;;;;;16.27;13.30;;;15.80;52.00;;;;;;5093947;28;20219;-86
2022/04/22 10:38:37;;;;;;;13.93;11.75;;;15.70;51.90;;;;;;5086307;28;20199;-85
2022/04/22 10:41:12;;;;;;;16.45;13.23;;;15.60;51.90;;;;;;5084559;28;20295;-84
2022/04/22 10:43:39;;;;;;;16.35;13.23;;;15.50;51.70;;;;;;5083224;28;20233;-87
2022/04/22 10:49:12;;;;;;;14.25;11.10;;;15.40;51.80;;;;;;5104241;28;20320;-84
2022/04/22 10:51:59;;;;;;;14.27;11.45;;;15.50;52.50;;;;;;5091562;28;20187;-85
2022/04/22 10:54:52;;;;;;;20.23;12.07;;;15.40;52.40;;;;;;5098644;28;20191;-86
2022/04/22 10:57:29;;;;;;;13.07;11.70;;;15.40;52.70;;;;;;5117845;28;20168;-86
2022/04/22 11:00:27;;;;;;;13.90;12.18;;;15.40;53.00;;;;;;5117644;28;20178;-87
2022/04/22 11:03:03;;;;;;;15.77;11.57;;;15.40;53.10;;;;;;5087359;28;20271;-86
2022/04/22 11:05:31;;;;;;;16.50;11.70;;;15.30;52.90;;;;;;5100118;28;20217;-86
2022/04/22 11:07:57;;;;;;;17.98;11.98;;;15.30;53.10;;;;;;5116934;28;20246;-86
2022/04/22 11:10:42;;;;;;;13.82;12.38;;;15.30;53.10;;;;;;5100112;28;20183;-86
2022/04/22 11:13:07;;;;;;;16.27;13.57;;;15.50;53.00;;;;;;5093521;28;20176;-85
2022/04/22 11:15:42;;;;;;;16.17;13.10;;;15.40;53.10;;;;;;5092742;28;20222;-87
2022/04/22 11:18:15;;;;;;;15.45;13.90;;;15.40;53.00;;;;;;5089238;28;20191;-86
2022/04/22 11:20:49;;;;;;;15.80;14.13;;;15.40;52.80;;;;;;5093473;28;20175;-86
2022/04/22 11:23:15;;;;;;;16.05;14.40;;;15.30;53.00;;;;;;5111723;28;20191;-87
2022/04/22 11:25:42;;;;;;;15.00;13.37;;;15.40;52.60;;;;;;5086629;28;20225;-87
2022/04/22 11:28:09;;;;;;;16.02;14.35;;;15.40;52.50;;;;;;5087579;28;20418;-85
2022/04/22 11:30:35;;;;;;;16.38;14.75;;;15.40;52.40;;;;;;5089553;28;20175;-87
2022/04/22 11:33:42;;;;;;;16.75;13.55;;;15.50;52.50;;;;;;5115910;28;20156;-85
2022/04/22 11:36:07;;;;;;;17.45;15.65;;;15.50;52.80;;;;;;5039461;28;20203;-85
2022/04/22 11:38:33;;;;;;;17.93;14.90;;;15.40;52.70;;;;;;5081663;28;20168;-85
2022/04/22 11:40:59;;;;;;;16.97;15.03;;;15.40;52.90;;;;;;5082443;28;20176;-84
2022/04/22 11:43:28;;;;;;;18.30;15.70;;;15.30;53.20;;;;;;5083266;28;20453;-84
2022/04/22 11:45:54;;;;;;;18.92;16.95;;;15.40;53.50;;;;;;5086377;28;20225;-85
2022/04/22 11:48:21;;;;;;;18.73;16.83;;;15.40;53.50;;;;;;5085715;28;20203;-85
2022/04/22 11:50:47;;;;;;;17.00;15.30;;;15.50;53.40;;;;;;5103539;28;20172;-84
2022/04/22 11:53:22;;;;;;;17.13;15.32;;;15.80;53.00;;;;;;5097137;28;20627;-84
2022/04/22 11:55:49;;;;;;;22.30;17.48;;;15.90;52.80;;;;;;5102877;28;20588;-86
2022/04/22 11:58:16;;;;;;;21.08;17.23;;;15.80;52.70;;;;;;5103804;28;20607;-87
2022/04/22 12:06:17;;;;;;;19.52;16.73;;;15.80;53.30;;;;;;5104762;28;20244;-84
2022/04/22 12:09:06;;;;;;;16.92;15.32;;;15.90;53.30;;;;;;5100880;28;20761;-85
2022/04/22 12:11:42;;;;;;;20.73;18.20;;;16.10;53.10;;;;;;5066337;28;20184;-84
2022/04/22 12:14:09;;;;;;;20.52;18.35;;;16.20;52.40;;;;;;5081518;28;20206;-84
2022/04/22 12:16:35;;;;;;;19.00;16.73;;;16.00;52.20;;;;;;5087067;28;20190;-86
2022/04/22 12:19:01;;;;;;;19.97;16.90;;;15.90;52.50;;;;;;5119199;28;20164;-87
2022/04/22 12:21:36;;;;;;;21.38;17.65;;;16.10;52.30;;;;;;5099541;28;20428;-87
2022/04/22 12:24:02;;;;;;;19.88;16.77;;;16.20;51.70;;;;;;5090077;28;20223;-86
2022/04/22 12:26:34;;;;;;;17.58;15.93;;;16.10;51.90;;;;;;5092189;28;20168;-87
2022/04/22 12:29:13;;;;;;;18.92;16.92;;;16.20;51.70;;;;;;5089171;28;20183;-85
2022/04/22 12:31:40;;;;;;;19.83;17.73;;;16.20;51.60;;;;;;5092744;28;20175;-85
2022/04/22 12:34:09;;;;;;;19.55;17.67;;;16.20;52.10;;;;;;5092347;28;20235;-85
2022/04/22 12:36:53;;;;;;;18.67;16.15;;;16.20;51.90;;;;;;5106078;28;20658;-85
2022/04/22 12:39:33;;;;;;;18.27;16.30;;;16.10;52.30;;;;;;5097870;28;20196;-86
2022/04/22 12:41:59;;;;;;;17.77;15.98;;;16.20;52.20;;;;;;5101248;28;20164;-85
2022/04/22 12:44:25;;;;;;;15.53;13.93;;;16.50;51.80;;;;;;5101741;28;20215;-85
2022/04/22 12:52:31;;;;;;;19.08;16.85;;;16.80;50.40;;;;;;5119814;28;20163;-86
2022/04/22 12:55:08;;;;;;;17.83;15.88;;;17.00;50.00;;;;;;5101096;28;20196;-84
2022/04/22 12:57:36;;;;;;;15.43;13.68;;;17.00;49.50;;;;;;5102511;28;20239;-84
2022/04/22 13:00:17;;;;;;;18.50;16.55;;;16.90;49.90;;;;;;5086133;28;20167;-85
2022/04/22 13:02:43;;;;;;;20.23;18.30;;;17.00;50.00;;;;;;5102258;28;20194;-84
2022/04/22 13:05:19;;;;;;;19.30;16.97;;;16.80;50.20;;;;;;5102686;28;20195;-84
2022/04/22 13:07:48;;;;;;;17.10;15.30;;;17.00;50.50;;;;;;5098264;28;20164;-86
2022/04/22 13:10:14;;;;;;;18.80;16.33;;;17.10;50.00;;;;;;5090124;28;20176;-87
2022/04/22 13:12:41;;;;;;;17.00;14.73;;;17.10;49.90;;;;;;5108995;28;20198;-87
2022/04/22 13:15:08;;;;;;;18.48;15.10;;;17.30;49.90;;;;;;5093905;28;20206;-86
2022/04/22 13:17:39;;;;;;;16.98;15.23;;;17.30;49.70;;;;;;5105617;28;20222;-87
2022/04/22 13:20:06;;;;;;;16.38;14.88;;;17.30;49.40;;;;;;5089335;28;20175;-86
2022/04/22 13:22:33;;;;;;;17.05;15.38;;;17.20;49.00;;;;;;5089701;28;20183;-87
2022/04/22 13:24:58;;;;;;;18.35;16.15;;;17.30;49.30;;;;;;5093750;28;20223;-87
2022/04/22 13:27:24;;;;;;;16.00;14.40;;;17.50;48.50;;;;;;5098908;28;20171;-86
2022/04/22 13:29:50;;;;;;;16.37;14.90;;;17.50;48.10;;;;;;5092759;28;20332;-87
2022/04/22 13:32:15;;;;;;;15.30;13.80;;;17.50;48.50;;;;;;5084775;28;20203;-86
2022/04/22 13:34:41;;;;;;;14.23;12.93;;;17.50;48.10;;;;;;5080320;28;20589;-86
2022/04/22 13:37:07;;;;;;;16.73;14.10;;;17.60;47.40;;;;;;5080324;28;20196;-85